Atlantic Horizon — C6XI2 — position and weather

sailwx.info

Track history (hours):
 
Tides and Currents Weather Stations Pressure Air Temp Water Temp Dewpoint Dewpoint Depression Visibility Wind Speed Wind Dir Waves Ship Positions

Atlantic Horizon

Last reported at 2017-Mar-27 03:29 UTC. Time now 2017-Mar-27 06:38 UTC.
Position N 48°26' W 006°09'.

Length 224 m; draft 12.7 m.

Type: Cargo ship. MMSI: 311010300.

Date/timePositionNaut miles runAvg speedWind from/ knotsBaromVisibWave heightAir tempDewpointWater temp
2017-Mar-27 03:29N 48°26' W 006°09'2211.0
2017-Mar-27 01:32N 48°46' W 005°54'1111.1
2017-Mar-27 00:31N 48°55' W 005°44'1312.5
2017-Mar-26 23:29N 49°02' W 005°27'1312.5
2017-Mar-26 22:27N 49°08' W 005°10'2613.3
2017-Mar-26 20:30N 49°21' W 004°36'1313.5
2017-Mar-26 19:30N 49°29' W 004°19'3511.8
2017-Mar-26 16:33N 49°46' W 003°32'1211.6
2017-Mar-26 15:34N 49°51' W 003°16'1312.6
2017-Mar-26 14:34N 49°58' W 002°59'3014.7
2017-Mar-26 12:31N 50°06' W 002°14'1515.8
2017-Mar-26 11:33N 50°10' W 001°52'1514.6
2017-Mar-26 10:33N 50°14' W 001°29'4411.0
2017-Mar-26 06:32N 50°25' W 000°22'1111.5
2017-Mar-26 05:33N 50°28' W 000°05'1312.6
2017-Mar-26 04:33N 50°32' E 000°14'1413.6
2017-Mar-26 03:33N 50°35' E 000°34'1414.0
2017-Mar-26 02:33N 50°43' E 000°52'1413.5
2017-Mar-26 01:31N 50°52' E 001°11'1212.4
2017-Mar-26 00:33N 50°60' E 001°24'1111.3
2017-Mar-25 23:33N 51°08' E 001°37'1111.0
2017-Mar-25 22:33N 51°16' E 001°48'1212.1
2017-Mar-25 21:33N 51°26' E 001°59'1313.3
2017-Mar-25 20:33N 51°37' E 002°13'1414.1
2017-Mar-25 19:33N 51°47' E 002°27'1413.7
2017-Mar-25 18:33N 51°60' E 002°37'1414.1
2017-Mar-25 17:33N 52°14' E 002°41'1313.6
2017-Mar-25 16:33N 52°26' E 002°51'1512.7
2017-Mar-25 15:23N 52°39' E 003°02'1012.1
2017-Mar-25 14:32N 52°48' E 003°10'1211.7
2017-Mar-25 13:33N 52°59' E 003°17'1211.8
2017-Mar-25 12:33N 53°10' E 003°23'1212.4
2017-Mar-25 11:33N 53°22' E 003°29'1312.8
2017-Mar-25 10:33N 53°34' E 003°36'1312.6
2017-Mar-25 09:33N 53°45' E 003°45'1313.1
2017-Mar-25 08:33N 53°53' E 004°03'1312.8
2017-Mar-25 07:33N 54°00' E 004°21'1312.5
2017-Mar-25 06:33N 54°12' E 004°31'1212.4
2017-Mar-25 05:33N 54°23' E 004°39'1212.3
2017-Mar-25 04:33N 54°34' E 004°47'1212.3
2017-Mar-25 03:33N 54°46' E 004°56'1212.5
2017-Mar-25 02:33N 54°57' E 005°04'1312.6
2017-Mar-25 01:33N 55°09' E 005°13'1312.6
2017-Mar-25 00:33N 55°20' E 005°22'1312.6
2017-Mar-24 23:33N 55°32' E 005°31'1312.6
2017-Mar-24 22:33N 55°44' E 005°39'1712.7
2017-Mar-24 21:13N 55°59' E 005°51'2312.7
2017-Mar-24 19:26N 56°20' E 006°07'1412.6
2017-Mar-24 18:20N 56°33' E 006°17'911.3
2017-Mar-24 17:33N 56°40' E 006°25'2 1.7
2017-Mar-24 16:05N 56°42' E 006°29'1 2.0
2017-Mar-24 15:33N 56°43' E 006°30'1111.1
2017-Mar-24 14:32N 56°49' E 006°47'8411.6
2017-Mar-24 07:19N 57°38' E 008°53'1111.2
2017-Mar-24 06:23N 57°44' E 009°09'1011.4
2017-Mar-24 05:29N 57°50' E 009°24'1010.8
2017-Mar-24 04:33N 57°52' E 009°43'1111.4
2017-Mar-24 03:33N 57°52' E 010°04'1211.9
2017-Mar-24 02:33N 57°52' E 010°26'1210.9
2017-Mar-24 01:28N 57°48' E 010°47'9 9.9
2017-Mar-24 00:33N 57°41' E 010°59'1111.3
2017-Mar-23 23:33N 57°34' E 011°15'1111.5
2017-Mar-23 22:33N 57°25' E 011°28'1211.9
2017-Mar-23 21:33N 57°14' E 011°36'1212.1
2017-Mar-23 20:32N 57°02' E 011°43'1311.7
2017-Mar-23 19:26N 56°50' E 011°51'9 9.7
2017-Mar-23 18:33N 56°42' E 011°47'1311.6
2017-Mar-23 17:28N 56°33' E 011°29'19 8.7
2017-Mar-23 15:14N 56°19' E 011°06'811.7
2017-Mar-23 14:32N 56°11' E 011°06'4511.2
2017-Mar-23 10:32N 55°26' E 010°58'1111.5
2017-Mar-23 09:33N 55°16' E 011°05'1010.2
2017-Mar-23 08:33N 55°06' E 010°59'1010.6
2017-Mar-23 07:33N 54°56' E 010°53'1111.2
2017-Mar-23 06:33N 54°45' E 010°48'8 7.8
2017-Mar-23 05:33N 54°38' E 010°54'1111.2
2017-Mar-23 04:33N 54°35' E 011°12'1111.4
2017-Mar-23 03:33N 54°30' E 011°30'1211.7
2017-Mar-23 02:33N 54°25' E 011°48'1210.5
2017-Mar-23 01:25N 54°16' E 012°02'6 6.9
2017-Mar-23 00:33N 54°11' E 012°06'2 0.2
2017-Mar-22 14:13N 54°09' E 012°07'0 0.0
2017-Mar-22 08:31N 54°09' E 012°07'0 0.0
2017-Mar-21 19:19N 54°09' E 012°07'0 0.0
2017-Mar-20 17:07N 54°09' E 012°07'0 0.0
2017-Mar-20 10:28N 54°09' E 012°07'0 0.0
2017-Mar-19 18:31N 54°09' E 012°07'0 0.0
2017-Mar-19 12:31N 54°09' E 012°07'0 0.0
2017-Mar-18 07:16N 54°09' E 012°07'0 0.0
2017-Mar-17 18:13N 54°09' E 012°07'0 0.0
2017-Mar-17 17:31N 54°09' E 012°07'0 0.0
2017-Mar-17 13:31N 54°09' E 012°07'0 0.0
2017-Mar-17 07:31N 54°09' E 012°07'0 0.0
2017-Mar-17 04:13N 54°09' E 012°07'  
Track history (hours):
 
Tides and Currents Weather Stations Pressure Air Temp Water Temp Dewpoint Dewpoint Depression Visibility Wind Speed Wind Dir Waves Ship Positions

Atlantic Horizon

Last reported at 2017-Mar-27 03:29 UTC. Time now 2017-Mar-27 06:38 UTC.
Position N 48°26' W 006°09'.

Length 224 m; draft 12.7 m.

Type: Cargo ship. MMSI: 311010300.

Date/timePositionNaut miles runAvg speedWind from/ knotsBaromVisibWave heightAir tempDewpointWater temp
2017-Mar-27 03:29N 48°26' W 006°09'2211.0
2017-Mar-27 01:32N 48°46' W 005°54'1111.1
2017-Mar-27 00:31N 48°55' W 005°44'1312.5
2017-Mar-26 23:29N 49°02' W 005°27'1312.5
2017-Mar-26 22:27N 49°08' W 005°10'2613.3
2017-Mar-26 20:30N 49°21' W 004°36'1313.5
2017-Mar-26 19:30N 49°29' W 004°19'3511.8
2017-Mar-26 16:33N 49°46' W 003°32'1211.6
2017-Mar-26 15:34N 49°51' W 003°16'1312.6
2017-Mar-26 14:34N 49°58' W 002°59'3014.7
2017-Mar-26 12:31N 50°06' W 002°14'1515.8
2017-Mar-26 11:33N 50°10' W 001°52'1514.6
2017-Mar-26 10:33N 50°14' W 001°29'4411.0
2017-Mar-26 06:32N 50°25' W 000°22'1111.5
2017-Mar-26 05:33N 50°28' W 000°05'1312.6
2017-Mar-26 04:33N 50°32' E 000°14'1413.6
2017-Mar-26 03:33N 50°35' E 000°34'1414.0
2017-Mar-26 02:33N 50°43' E 000°52'1413.5
2017-Mar-26 01:31N 50°52' E 001°11'1212.4
2017-Mar-26 00:33N 50°60' E 001°24'1111.3
2017-Mar-25 23:33N 51°08' E 001°37'1111.0
2017-Mar-25 22:33N 51°16' E 001°48'1212.1
2017-Mar-25 21:33N 51°26' E 001°59'1313.3
2017-Mar-25 20:33N 51°37' E 002°13'1414.1
2017-Mar-25 19:33N 51°47' E 002°27'1413.7
2017-Mar-25 18:33N 51°60' E 002°37'1414.1
2017-Mar-25 17:33N 52°14' E 002°41'1313.6
2017-Mar-25 16:33N 52°26' E 002°51'1512.7
2017-Mar-25 15:23N 52°39' E 003°02'1012.1
2017-Mar-25 14:32N 52°48' E 003°10'1211.7
2017-Mar-25 13:33N 52°59' E 003°17'1211.8
2017-Mar-25 12:33N 53°10' E 003°23'1212.4
2017-Mar-25 11:33N 53°22' E 003°29'1312.8
2017-Mar-25 10:33N 53°34' E 003°36'1312.6
2017-Mar-25 09:33N 53°45' E 003°45'1313.1
2017-Mar-25 08:33N 53°53' E 004°03'1312.8
2017-Mar-25 07:33N 54°00' E 004°21'1312.5
2017-Mar-25 06:33N 54°12' E 004°31'1212.4
2017-Mar-25 05:33N 54°23' E 004°39'1212.3
2017-Mar-25 04:33N 54°34' E 004°47'1212.3
2017-Mar-25 03:33N 54°46' E 004°56'1212.5
2017-Mar-25 02:33N 54°57' E 005°04'1312.6
2017-Mar-25 01:33N 55°09' E 005°13'1312.6
2017-Mar-25 00:33N 55°20' E 005°22'1312.6
2017-Mar-24 23:33N 55°32' E 005°31'1312.6
2017-Mar-24 22:33N 55°44' E 005°39'1712.7
2017-Mar-24 21:13N 55°59' E 005°51'2312.7
2017-Mar-24 19:26N 56°20' E 006°07'1412.6
2017-Mar-24 18:20N 56°33' E 006°17'911.3
2017-Mar-24 17:33N 56°40' E 006°25'2 1.7
2017-Mar-24 16:05N 56°42' E 006°29'1 2.0
2017-Mar-24 15:33N 56°43' E 006°30'1111.1
2017-Mar-24 14:32N 56°49' E 006°47'8411.6
2017-Mar-24 07:19N 57°38' E 008°53'1111.2
2017-Mar-24 06:23N 57°44' E 009°09'1011.4
2017-Mar-24 05:29N 57°50' E 009°24'1010.8
2017-Mar-24 04:33N 57°52' E 009°43'1111.4
2017-Mar-24 03:33N 57°52' E 010°04'1211.9
2017-Mar-24 02:33N 57°52' E 010°26'1210.9
2017-Mar-24 01:28N 57°48' E 010°47'9 9.9
2017-Mar-24 00:33N 57°41' E 010°59'1111.3
2017-Mar-23 23:33N 57°34' E 011°15'1111.5
2017-Mar-23 22:33N 57°25' E 011°28'1211.9
2017-Mar-23 21:33N 57°14' E 011°36'1212.1
2017-Mar-23 20:32N 57°02' E 011°43'1311.7
2017-Mar-23 19:26N 56°50' E 011°51'9 9.7
2017-Mar-23 18:33N 56°42' E 011°47'1311.6
2017-Mar-23 17:28N 56°33' E 011°29'19 8.7
2017-Mar-23 15:14N 56°19' E 011°06'811.7
2017-Mar-23 14:32N 56°11' E 011°06'4511.2
2017-Mar-23 10:32N 55°26' E 010°58'1111.5
2017-Mar-23 09:33N 55°16' E 011°05'1010.2
2017-Mar-23 08:33N 55°06' E 010°59'1010.6
2017-Mar-23 07:33N 54°56' E 010°53'1111.2
2017-Mar-23 06:33N 54°45' E 010°48'8 7.8
2017-Mar-23 05:33N 54°38' E 010°54'1111.2
2017-Mar-23 04:33N 54°35' E 011°12'1111.4
2017-Mar-23 03:33N 54°30' E 011°30'1211.7
2017-Mar-23 02:33N 54°25' E 011°48'1210.5
2017-Mar-23 01:25N 54°16' E 012°02'6 6.9
2017-Mar-23 00:33N 54°11' E 012°06'2 0.2
2017-Mar-22 14:13N 54°09' E 012°07'0 0.0
2017-Mar-22 08:31N 54°09' E 012°07'0 0.0
2017-Mar-21 19:19N 54°09' E 012°07'0 0.0
2017-Mar-20 17:07N 54°09' E 012°07'0 0.0
2017-Mar-20 10:28N 54°09' E 012°07'0 0.0
2017-Mar-19 18:31N 54°09' E 012°07'0 0.0
2017-Mar-19 12:31N 54°09' E 012°07'0 0.0
2017-Mar-18 07:16N 54°09' E 012°07'0 0.0
2017-Mar-17 18:13N 54°09' E 012°07'0 0.0
2017-Mar-17 17:31N 54°09' E 012°07'0 0.0
2017-Mar-17 13:31N 54°09' E 012°07'0 0.0
2017-Mar-17 07:31N 54°09' E 012°07'0 0.0
2017-Mar-17 04:13N 54°09' E 012°07'  

Dump ship's entire track history